sensor_id;sensor_type;location;lat;lon;timestamp;P1;durP1;ratioP1;P2;durP2;ratioP2
43048;SDS011;28673;44.412;11.918;2023-02-11T00:00:31;46.75;;;20.25;;
43048;SDS011;28673;44.412;11.918;2023-02-11T00:02:57;43.75;;;21.85;;
43048;SDS011;28673;44.412;11.918;2023-02-11T00:05:23;43.95;;;22.10;;
43048;SDS011;28673;44.412;11.918;2023-02-11T00:07:49;46.55;;;22.17;;
43048;SDS011;28673;44.412;11.918;2023-02-11T00:10:15;40.45;;;20.45;;
43048;SDS011;28673;44.412;11.918;2023-02-11T00:12:40;46.60;;;21.48;;
43048;SDS011;28673;44.412;11.918;2023-02-11T00:15:07;48.75;;;20.45;;
43048;SDS011;28673;44.412;11.918;2023-02-11T00:17:34;42.03;;;21.52;;
43048;SDS011;28673;44.412;11.918;2023-02-11T00:20:00;38.92;;;18.35;;
43048;SDS011;28673;44.412;11.918;2023-02-11T00:22:26;45.35;;;20.73;;
43048;SDS011;28673;44.412;11.918;2023-02-11T00:24:52;39.38;;;19.40;;
43048;SDS011;28673;44.412;11.918;2023-02-11T00:27:18;41.33;;;18.77;;
43048;SDS011;28673;44.412;11.918;2023-02-11T00:29:44;38.78;;;19.20;;
43048;SDS011;28673;44.412;11.918;2023-02-11T00:32:10;40.13;;;18.02;;
43048;SDS011;28673;44.412;11.918;2023-02-11T00:34:36;46.33;;;18.63;;
43048;SDS011;28673;44.412;11.918;2023-02-11T00:37:02;48.53;;;19.42;;
43048;SDS011;28673;44.412;11.918;2023-02-11T00:39:28;37.63;;;18.83;;
43048;SDS011;28673;44.412;11.918;2023-02-11T00:41:54;44.17;;;19.10;;
43048;SDS011;28673;44.412;11.918;2023-02-11T00:44:20;42.30;;;20.65;;
43048;SDS011;28673;44.412;11.918;2023-02-11T00:46:46;38.72;;;17.13;;
43048;SDS011;28673;44.412;11.918;2023-02-11T00:49:12;38.00;;;18.27;;
43048;SDS011;28673;44.412;11.918;2023-02-11T00:51:40;33.33;;;17.50;;
43048;SDS011;28673;44.412;11.918;2023-02-11T00:54:06;40.83;;;18.15;;
43048;SDS011;28673;44.412;11.918;2023-02-11T00:56:32;39.20;;;17.95;;
43048;SDS011;28673;44.412;11.918;2023-02-11T00:58:57;37.97;;;16.65;;
43048;SDS011;28673;44.412;11.918;2023-02-11T01:01:23;39.38;;;15.80;;
43048;SDS011;28673;44.412;11.918;2023-02-11T01:03:49;38.40;;;17.23;;
43048;SDS011;28673;44.412;11.918;2023-02-11T01:06:15;39.00;;;16.33;;
43048;SDS011;28673;44.412;11.918;2023-02-11T01:08:41;35.92;;;16.75;;
43048;SDS011;28673;44.412;11.918;2023-02-11T01:11:12;38.22;;;16.73;;
43048;SDS011;28673;44.412;11.918;2023-02-11T01:13:39;26.05;;;14.05;;
43048;SDS011;28673;44.412;11.918;2023-02-11T01:16:06;34.53;;;16.45;;
43048;SDS011;28673;44.412;11.918;2023-02-11T01:18:34;33.85;;;16.92;;
43048;SDS011;28673;44.412;11.918;2023-02-11T01:21:00;37.78;;;17.20;;
43048;SDS011;28673;44.412;11.918;2023-02-11T01:23:27;36.45;;;15.00;;
43048;SDS011;28673;44.412;11.918;2023-02-11T01:25:52;40.42;;;16.23;;
43048;SDS011;28673;44.412;11.918;2023-02-11T01:28:19;37.00;;;16.52;;
43048;SDS011;28673;44.412;11.918;2023-02-11T01:30:49;30.98;;;14.50;;
43048;SDS011;28673;44.412;11.918;2023-02-11T01:33:15;34.08;;;14.55;;
43048;SDS011;28673;44.412;11.918;2023-02-11T01:35:42;40.25;;;15.27;;
43048;SDS011;28673;44.412;11.918;2023-02-11T01:38:13;37.38;;;16.90;;
43048;SDS011;28673;44.412;11.918;2023-02-11T01:40:45;37.00;;;14.98;;
43048;SDS011;28673;44.412;11.918;2023-02-11T01:43:15;30.63;;;13.73;;
43048;SDS011;28673;44.412;11.918;2023-02-11T01:51:07;25.75;;;13.02;;
43048;SDS011;28673;44.412;11.918;2023-02-11T01:53:37;28.55;;;14.45;;
43048;SDS011;28673;44.412;11.918;2023-02-11T01:56:22;32.28;;;14.48;;
43048;SDS011;28673;44.412;11.918;2023-02-11T01:59:11;33.30;;;15.00;;
43048;SDS011;28673;44.412;11.918;2023-02-11T02:01:41;39.75;;;15.38;;
43048;SDS011;28673;44.412;11.918;2023-02-11T02:04:11;33.38;;;15.15;;
43048;SDS011;28673;44.412;11.918;2023-02-11T02:06:42;42.58;;;15.32;;
43048;SDS011;28673;44.412;11.918;2023-02-11T02:09:19;31.83;;;15.80;;
43048;SDS011;28673;44.412;11.918;2023-02-11T02:11:49;37.35;;;14.77;;
43048;SDS011;28673;44.412;11.918;2023-02-11T02:14:15;34.65;;;16.00;;
43048;SDS011;28673;44.412;11.918;2023-02-11T02:16:41;29.13;;;14.82;;
43048;SDS011;28673;44.412;11.918;2023-02-11T02:27:40;32.22;;;15.98;;
43048;SDS011;28673;44.412;11.918;2023-02-11T02:35:37;30.23;;;14.77;;
43048;SDS011;28673;44.412;11.918;2023-02-11T02:38:23;32.15;;;14.70;;
43048;SDS011;28673;44.412;11.918;2023-02-11T02:41:00;45.22;;;15.75;;
43048;SDS011;28673;44.412;11.918;2023-02-11T02:43:36;35.72;;;15.68;;
43048;SDS011;28673;44.412;11.918;2023-02-11T02:48:36;28.17;;;13.73;;
43048;SDS011;28673;44.412;11.918;2023-02-11T02:59:23;33.72;;;13.35;;
43048;SDS011;28673;44.412;11.918;2023-02-11T03:05:01;37.22;;;15.27;;
43048;SDS011;28673;44.412;11.918;2023-02-11T03:10:14;30.80;;;15.15;;
43048;SDS011;28673;44.412;11.918;2023-02-11T03:12:43;34.65;;;14.88;;
43048;SDS011;28673;44.412;11.918;2023-02-11T03:15:11;34.25;;;14.93;;
43048;SDS011;28673;44.412;11.918;2023-02-11T03:17:38;29.25;;;12.85;;
43048;SDS011;28673;44.412;11.918;2023-02-11T03:20:09;31.88;;;14.40;;
43048;SDS011;28673;44.412;11.918;2023-02-11T03:22:41;32.20;;;13.90;;
43048;SDS011;28673;44.412;11.918;2023-02-11T03:25:13;35.70;;;15.85;;
43048;SDS011;28673;44.412;11.918;2023-02-11T03:27:46;34.22;;;15.60;;
43048;SDS011;28673;44.412;11.918;2023-02-11T03:30:39;40.55;;;17.38;;
43048;SDS011;28673;44.412;11.918;2023-02-11T03:33:13;49.00;;;19.15;;
43048;SDS011;28673;44.412;11.918;2023-02-11T03:36:02;34.38;;;16.83;;
43048;SDS011;28673;44.412;11.918;2023-02-11T03:38:43;34.90;;;15.73;;
43048;SDS011;28673;44.412;11.918;2023-02-11T03:41:14;38.83;;;16.25;;
43048;SDS011;28673;44.412;11.918;2023-02-11T03:43:45;41.42;;;18.77;;
43048;SDS011;28673;44.412;11.918;2023-02-11T03:46:15;37.95;;;15.43;;
43048;SDS011;28673;44.412;11.918;2023-02-11T03:48:48;32.88;;;16.90;;
43048;SDS011;28673;44.412;11.918;2023-02-11T03:51:20;38.28;;;15.65;;
43048;SDS011;28673;44.412;11.918;2023-02-11T03:53:47;33.22;;;14.65;;
43048;SDS011;28673;44.412;11.918;2023-02-11T03:56:37;33.35;;;16.23;;
43048;SDS011;28673;44.412;11.918;2023-02-11T03:59:11;35.17;;;14.32;;
43048;SDS011;28673;44.412;11.918;2023-02-11T04:02:33;39.00;;;16.38;;
43048;SDS011;28673;44.412;11.918;2023-02-11T04:05:00;32.70;;;14.82;;
43048;SDS011;28673;44.412;11.918;2023-02-11T04:07:46;37.67;;;15.63;;
43048;SDS011;28673;44.412;11.918;2023-02-11T04:10:30;34.88;;;14.98;;
43048;SDS011;28673;44.412;11.918;2023-02-11T04:12:56;40.28;;;17.13;;
43048;SDS011;28673;44.412;11.918;2023-02-11T04:15:41;34.03;;;14.35;;
43048;SDS011;28673;44.412;11.918;2023-02-11T04:18:06;28.80;;;14.48;;
43048;SDS011;28673;44.412;11.918;2023-02-11T04:20:32;34.83;;;13.48;;
43048;SDS011;28673;44.412;11.918;2023-02-11T04:22:58;36.40;;;13.90;;
43048;SDS011;28673;44.412;11.918;2023-02-11T04:25:24;26.50;;;12.98;;
43048;SDS011;28673;44.412;11.918;2023-02-11T04:27:50;28.25;;;14.18;;
43048;SDS011;28673;44.412;11.918;2023-02-11T04:30:16;35.80;;;14.93;;
43048;SDS011;28673;44.412;11.918;2023-02-11T04:33:00;32.38;;;12.05;;
43048;SDS011;28673;44.412;11.918;2023-02-11T04:35:26;31.55;;;14.27;;
43048;SDS011;28673;44.412;11.918;2023-02-11T04:37:52;32.30;;;13.57;;
43048;SDS011;28673;44.412;11.918;2023-02-11T04:40:18;27.52;;;13.02;;
43048;SDS011;28673;44.412;11.918;2023-02-11T04:45:47;29.60;;;13.10;;
43048;SDS011;28673;44.412;11.918;2023-02-11T04:48:12;36.55;;;14.55;;
43048;SDS011;28673;44.412;11.918;2023-02-11T04:50:38;35.22;;;13.63;;
43048;SDS011;28673;44.412;11.918;2023-02-11T04:53:04;28.33;;;13.45;;
43048;SDS011;28673;44.412;11.918;2023-02-11T04:55:49;29.90;;;14.02;;
43048;SDS011;28673;44.412;11.918;2023-02-11T04:58:15;34.92;;;14.43;;
43048;SDS011;28673;44.412;11.918;2023-02-11T05:00:41;24.95;;;12.57;;
43048;SDS011;28673;44.412;11.918;2023-02-11T05:03:07;26.75;;;13.90;;
43048;SDS011;28673;44.412;11.918;2023-02-11T05:05:33;36.88;;;13.23;;
43048;SDS011;28673;44.412;11.918;2023-02-11T05:07:58;22.85;;;12.30;;
43048;SDS011;28673;44.412;11.918;2023-02-11T05:10:44;23.52;;;11.32;;
43048;SDS011;28673;44.412;11.918;2023-02-11T05:13:11;31.27;;;12.15;;
43048;SDS011;28673;44.412;11.918;2023-02-11T05:15:37;27.75;;;13.65;;
43048;SDS011;28673;44.412;11.918;2023-02-11T05:18:03;33.65;;;13.73;;
43048;SDS011;28673;44.412;11.918;2023-02-11T05:20:29;32.75;;;12.75;;
43048;SDS011;28673;44.412;11.918;2023-02-11T05:23:13;33.85;;;12.32;;
43048;SDS011;28673;44.412;11.918;2023-02-11T05:25:39;26.75;;;12.38;;
43048;SDS011;28673;44.412;11.918;2023-02-11T05:28:05;23.67;;;11.50;;
43048;SDS011;28673;44.412;11.918;2023-02-11T05:30:31;23.75;;;9.55;;
43048;SDS011;28673;44.412;11.918;2023-02-11T05:32:57;20.77;;;9.55;;
43048;SDS011;28673;44.412;11.918;2023-02-11T05:35:23;20.83;;;10.27;;
43048;SDS011;28673;44.412;11.918;2023-02-11T05:37:49;23.92;;;10.45;;
43048;SDS011;28673;44.412;11.918;2023-02-11T05:40:15;22.75;;;10.40;;
43048;SDS011;28673;44.412;11.918;2023-02-11T05:42:41;27.08;;;11.10;;
43048;SDS011;28673;44.412;11.918;2023-02-11T05:45:07;22.15;;;9.88;;
43048;SDS011;28673;44.412;11.918;2023-02-11T05:47:33;20.38;;;9.85;;
43048;SDS011;28673;44.412;11.918;2023-02-11T05:49:59;26.85;;;9.82;;
43048;SDS011;28673;44.412;11.918;2023-02-11T05:52:24;23.70;;;9.98;;
43048;SDS011;28673;44.412;11.918;2023-02-11T05:57:35;22.95;;;9.52;;
43048;SDS011;28673;44.412;11.918;2023-02-11T06:00:01;22.13;;;9.25;;
43048;SDS011;28673;44.412;11.918;2023-02-11T06:02:37;25.85;;;10.68;;
43048;SDS011;28673;44.412;11.918;2023-02-11T06:05:03;23.77;;;9.73;;
43048;SDS011;28673;44.412;11.918;2023-02-11T06:07:30;20.92;;;9.73;;
43048;SDS011;28673;44.412;11.918;2023-02-11T06:09:55;19.52;;;10.52;;
43048;SDS011;28673;44.412;11.918;2023-02-11T06:12:21;19.88;;;8.98;;
43048;SDS011;28673;44.412;11.918;2023-02-11T06:14:47;18.90;;;10.05;;
43048;SDS011;28673;44.412;11.918;2023-02-11T06:17:32;20.70;;;9.60;;
43048;SDS011;28673;44.412;11.918;2023-02-11T06:19:58;23.90;;;9.88;;
43048;SDS011;28673;44.412;11.918;2023-02-11T06:22:27;16.40;;;8.65;;
43048;SDS011;28673;44.412;11.918;2023-02-11T06:24:53;17.15;;;8.55;;
43048;SDS011;28673;44.412;11.918;2023-02-11T06:27:19;22.42;;;9.23;;
43048;SDS011;28673;44.412;11.918;2023-02-11T06:29:44;24.77;;;11.50;;
43048;SDS011;28673;44.412;11.918;2023-02-11T06:32:11;32.80;;;12.55;;
43048;SDS011;28673;44.412;11.918;2023-02-11T06:34:55;43.97;;;17.02;;
43048;SDS011;28673;44.412;11.918;2023-02-11T06:37:21;30.98;;;13.65;;
43048;SDS011;28673;44.412;11.918;2023-02-11T06:39:47;24.08;;;11.02;;
43048;SDS011;28673;44.412;11.918;2023-02-11T06:42:13;24.50;;;10.43;;
43048;SDS011;28673;44.412;11.918;2023-02-11T06:44:39;23.08;;;9.77;;
43048;SDS011;28673;44.412;11.918;2023-02-11T06:47:04;28.13;;;11.90;;
43048;SDS011;28673;44.412;11.918;2023-02-11T06:49:30;24.40;;;10.98;;
43048;SDS011;28673;44.412;11.918;2023-02-11T06:51:56;25.00;;;11.43;;
43048;SDS011;28673;44.412;11.918;2023-02-11T06:54:22;27.25;;;11.77;;
43048;SDS011;28673;44.412;11.918;2023-02-11T06:57:07;24.52;;;12.30;;
43048;SDS011;28673;44.412;11.918;2023-02-11T06:59:32;23.20;;;10.75;;
43048;SDS011;28673;44.412;11.918;2023-02-11T07:01:58;24.65;;;10.75;;
43048;SDS011;28673;44.412;11.918;2023-02-11T07:10:30;19.90;;;9.75;;
43048;SDS011;28673;44.412;11.918;2023-02-11T07:12:58;26.35;;;9.48;;
43048;SDS011;28673;44.412;11.918;2023-02-11T07:15:24;25.95;;;11.13;;
43048;SDS011;28673;44.412;11.918;2023-02-11T07:17:50;21.33;;;9.45;;
43048;SDS011;28673;44.412;11.918;2023-02-11T07:20:16;20.33;;;8.90;;
43048;SDS011;28673;44.412;11.918;2023-02-11T07:22:42;23.85;;;10.00;;
43048;SDS011;28673;44.412;11.918;2023-02-11T07:25:26;24.48;;;9.75;;
43048;SDS011;28673;44.412;11.918;2023-02-11T07:27:52;26.23;;;9.93;;
43048;SDS011;28673;44.412;11.918;2023-02-11T07:30:17;18.63;;;8.75;;
43048;SDS011;28673;44.412;11.918;2023-02-11T07:32:43;24.45;;;10.88;;
43048;SDS011;28673;44.412;11.918;2023-02-11T07:35:09;26.08;;;12.50;;
43048;SDS011;28673;44.412;11.918;2023-02-11T07:40:21;23.38;;;10.82;;
43048;SDS011;28673;44.412;11.918;2023-02-11T07:42:46;24.67;;;11.45;;
43048;SDS011;28673;44.412;11.918;2023-02-11T07:45:31;22.20;;;10.95;;
43048;SDS011;28673;44.412;11.918;2023-02-11T07:47:57;18.17;;;9.32;;
43048;SDS011;28673;44.412;11.918;2023-02-11T07:50:22;18.77;;;10.52;;
43048;SDS011;28673;44.412;11.918;2023-02-11T07:52:48;21.52;;;10.10;;
43048;SDS011;28673;44.412;11.918;2023-02-11T07:55:14;21.95;;;9.80;;
43048;SDS011;28673;44.412;11.918;2023-02-11T07:57:58;23.90;;;8.90;;
43048;SDS011;28673;44.412;11.918;2023-02-11T08:00:24;19.55;;;10.05;;
43048;SDS011;28673;44.412;11.918;2023-02-11T08:02:50;33.45;;;14.93;;
43048;SDS011;28673;44.412;11.918;2023-02-11T08:05:16;23.80;;;12.68;;
43048;SDS011;28673;44.412;11.918;2023-02-11T08:07:42;35.33;;;15.05;;
43048;SDS011;28673;44.412;11.918;2023-02-11T08:10:09;32.25;;;14.38;;
43048;SDS011;28673;44.412;11.918;2023-02-11T08:15:19;27.88;;;14.07;;
43048;SDS011;28673;44.412;11.918;2023-02-11T08:17:45;25.50;;;12.30;;
43048;SDS011;28673;44.412;11.918;2023-02-11T08:20:11;21.73;;;10.57;;
43048;SDS011;28673;44.412;11.918;2023-02-11T08:22:56;25.25;;;10.68;;
43048;SDS011;28673;44.412;11.918;2023-02-11T08:25:41;21.05;;;10.85;;
43048;SDS011;28673;44.412;11.918;2023-02-11T08:31:31;29.55;;;12.30;;
43048;SDS011;28673;44.412;11.918;2023-02-11T08:33:59;23.92;;;12.38;;
43048;SDS011;28673;44.412;11.918;2023-02-11T08:36:28;29.48;;;11.70;;
43048;SDS011;28673;44.412;11.918;2023-02-11T08:38:57;25.02;;;11.50;;
43048;SDS011;28673;44.412;11.918;2023-02-11T08:41:24;30.30;;;13.02;;
43048;SDS011;28673;44.412;11.918;2023-02-11T08:44:09;22.92;;;11.48;;
43048;SDS011;28673;44.412;11.918;2023-02-11T08:46:35;28.08;;;13.60;;
43048;SDS011;28673;44.412;11.918;2023-02-11T08:49:01;27.13;;;13.85;;
43048;SDS011;28673;44.412;11.918;2023-02-11T08:51:46;35.28;;;14.68;;
43048;SDS011;28673;44.412;11.918;2023-02-11T08:54:12;42.63;;;15.95;;
43048;SDS011;28673;44.412;11.918;2023-02-11T08:56:39;34.03;;;15.50;;
43048;SDS011;28673;44.412;11.918;2023-02-11T08:59:06;32.17;;;15.95;;
43048;SDS011;28673;44.412;11.918;2023-02-11T09:01:33;40.50;;;21.10;;
43048;SDS011;28673;44.412;11.918;2023-02-11T09:03:59;49.00;;;18.35;;
43048;SDS011;28673;44.412;11.918;2023-02-11T09:06:25;36.72;;;16.52;;
43048;SDS011;28673;44.412;11.918;2023-02-11T09:08:53;55.35;;;21.25;;
43048;SDS011;28673;44.412;11.918;2023-02-11T09:11:21;48.15;;;19.55;;
43048;SDS011;28673;44.412;11.918;2023-02-11T09:14:06;38.63;;;17.90;;
43048;SDS011;28673;44.412;11.918;2023-02-11T09:16:33;40.10;;;18.42;;
43048;SDS011;28673;44.412;11.918;2023-02-11T09:19:01;47.42;;;18.75;;
43048;SDS011;28673;44.412;11.918;2023-02-11T09:21:45;42.30;;;18.02;;
43048;SDS011;28673;44.412;11.918;2023-02-11T09:24:11;45.97;;;21.45;;
43048;SDS011;28673;44.412;11.918;2023-02-11T09:26:37;43.78;;;19.17;;
43048;SDS011;28673;44.412;11.918;2023-02-11T09:29:24;46.50;;;19.75;;
43048;SDS011;28673;44.412;11.918;2023-02-11T09:31:50;49.78;;;22.02;;
43048;SDS011;28673;44.412;11.918;2023-02-11T09:34:16;42.67;;;20.23;;
43048;SDS011;28673;44.412;11.918;2023-02-11T09:36:42;50.78;;;23.25;;
43048;SDS011;28673;44.412;11.918;2023-02-11T09:39:10;49.33;;;20.55;;
43048;SDS011;28673;44.412;11.918;2023-02-11T09:44:34;49.55;;;22.55;;
43048;SDS011;28673;44.412;11.918;2023-02-11T09:47:02;48.97;;;21.83;;
43048;SDS011;28673;44.412;11.918;2023-02-11T09:49:59;45.97;;;23.67;;
43048;SDS011;28673;44.412;11.918;2023-02-11T09:52:29;47.40;;;24.45;;
43048;SDS011;28673;44.412;11.918;2023-02-11T09:55:04;50.58;;;22.92;;
43048;SDS011;28673;44.412;11.918;2023-02-11T10:03:44;57.95;;;23.33;;
43048;SDS011;28673;44.412;11.918;2023-02-11T10:18:00;48.22;;;22.90;;
43048;SDS011;28673;44.412;11.918;2023-02-11T10:23:27;44.65;;;22.77;;
43048;SDS011;28673;44.412;11.918;2023-02-11T10:25:57;54.60;;;23.23;;
43048;SDS011;28673;44.412;11.918;2023-02-11T10:28:46;50.45;;;23.23;;
43048;SDS011;28673;44.412;11.918;2023-02-11T10:34:18;48.28;;;23.23;;
43048;SDS011;28673;44.412;11.918;2023-02-11T10:36:44;49.72;;;22.60;;
43048;SDS011;28673;44.412;11.918;2023-02-11T10:41:41;45.72;;;22.80;;
43048;SDS011;28673;44.412;11.918;2023-02-11T10:47:02;51.08;;;24.33;;
43048;SDS011;28673;44.412;11.918;2023-02-11T10:49:43;50.58;;;22.15;;
43048;SDS011;28673;44.412;11.918;2023-02-11T10:55:04;43.47;;;22.88;;
43048;SDS011;28673;44.412;11.918;2023-02-11T10:57:32;42.30;;;23.67;;
43048;SDS011;28673;44.412;11.918;2023-02-11T11:03:04;40.90;;;21.85;;
43048;SDS011;28673;44.412;11.918;2023-02-11T11:05:51;41.17;;;20.65;;
43048;SDS011;28673;44.412;11.918;2023-02-11T11:08:20;41.03;;;21.33;;
43048;SDS011;28673;44.412;11.918;2023-02-11T11:13:36;41.42;;;21.73;;
43048;SDS011;28673;44.412;11.918;2023-02-11T11:18:46;37.75;;;19.52;;
43048;SDS011;28673;44.412;11.918;2023-02-11T11:23:57;41.88;;;21.10;;
43048;SDS011;28673;44.412;11.918;2023-02-11T11:26:26;34.55;;;20.33;;
43048;SDS011;28673;44.412;11.918;2023-02-11T11:29:55;38.05;;;20.65;;
43048;SDS011;28673;44.412;11.918;2023-02-11T11:32:13;38.30;;;20.40;;
43048;SDS011;28673;44.412;11.918;2023-02-11T11:35:26;38.78;;;19.58;;
43048;SDS011;28673;44.412;11.918;2023-02-11T11:37:55;34.10;;;20.90;;
43048;SDS011;28673;44.412;11.918;2023-02-11T11:40:34;41.55;;;20.70;;
43048;SDS011;28673;44.412;11.918;2023-02-11T11:45:51;39.15;;;21.20;;
43048;SDS011;28673;44.412;11.918;2023-02-11T11:48:44;34.30;;;19.25;;
43048;SDS011;28673;44.412;11.918;2023-02-11T11:51:14;40.95;;;21.02;;
43048;SDS011;28673;44.412;11.918;2023-02-11T11:53:50;43.25;;;19.30;;
43048;SDS011;28673;44.412;11.918;2023-02-11T11:56:26;40.50;;;20.25;;
43048;SDS011;28673;44.412;11.918;2023-02-11T11:59:12;36.63;;;20.25;;
43048;SDS011;28673;44.412;11.918;2023-02-11T12:04:55;38.93;;;20.70;;
43048;SDS011;28673;44.412;11.918;2023-02-11T12:07:26;32.10;;;18.88;;
43048;SDS011;28673;44.412;11.918;2023-02-11T12:10:21;43.78;;;20.83;;
43048;SDS011;28673;44.412;11.918;2023-02-11T12:13:22;39.05;;;18.20;;
43048;SDS011;28673;44.412;11.918;2023-02-11T12:16:16;33.00;;;18.35;;
43048;SDS011;28673;44.412;11.918;2023-02-11T12:21:41;32.15;;;17.75;;
43048;SDS011;28673;44.412;11.918;2023-02-11T12:36:05;33.60;;;18.10;;
43048;SDS011;28673;44.412;11.918;2023-02-11T12:38:46;44.10;;;21.92;;
43048;SDS011;28673;44.412;11.918;2023-02-11T12:47:13;32.45;;;17.40;;
43048;SDS011;28673;44.412;11.918;2023-02-11T12:55:43;28.58;;;15.05;;
43048;SDS011;28673;44.412;11.918;2023-02-11T12:58:17;30.42;;;15.63;;
43048;SDS011;28673;44.412;11.918;2023-02-11T13:00:57;33.15;;;17.17;;
43048;SDS011;28673;44.412;11.918;2023-02-11T13:04:22;34.20;;;16.60;;
43048;SDS011;28673;44.412;11.918;2023-02-11T13:06:48;28.65;;;15.95;;
43048;SDS011;28673;44.412;11.918;2023-02-11T13:09:31;27.73;;;16.25;;
43048;SDS011;28673;44.412;11.918;2023-02-11T13:12:03;27.88;;;15.90;;
43048;SDS011;28673;44.412;11.918;2023-02-11T13:17:43;43.47;;;19.60;;
43048;SDS011;28673;44.412;11.918;2023-02-11T13:20:20;28.15;;;16.08;;
43048;SDS011;28673;44.412;11.918;2023-02-11T13:23:06;27.30;;;14.95;;
43048;SDS011;28673;44.412;11.918;2023-02-11T13:25:53;30.90;;;16.17;;
43048;SDS011;28673;44.412;11.918;2023-02-11T13:31:01;30.33;;;15.98;;
43048;SDS011;28673;44.412;11.918;2023-02-11T13:38:27;33.33;;;16.48;;
43048;SDS011;28673;44.412;11.918;2023-02-11T13:41:05;34.97;;;17.67;;
43048;SDS011;28673;44.412;11.918;2023-02-11T13:44:00;28.23;;;16.35;;
43048;SDS011;28673;44.412;11.918;2023-02-11T13:49:29;34.15;;;18.48;;
43048;SDS011;28673;44.412;11.918;2023-02-11T13:52:21;33.97;;;17.98;;
43048;SDS011;28673;44.412;11.918;2023-02-11T13:55:20;33.53;;;17.48;;
43048;SDS011;28673;44.412;11.918;2023-02-11T14:19:43;30.63;;;16.17;;
43048;SDS011;28673;44.412;11.918;2023-02-11T14:22:16;33.35;;;16.88;;
43048;SDS011;28673;44.412;11.918;2023-02-11T14:24:55;27.42;;;15.68;;
43048;SDS011;28673;44.412;11.918;2023-02-11T14:33:02;31.95;;;17.17;;
43048;SDS011;28673;44.412;11.918;2023-02-11T14:43:51;30.85;;;16.63;;
43048;SDS011;28673;44.412;11.918;2023-02-11T14:46:27;31.27;;;17.10;;
43048;SDS011;28673;44.412;11.918;2023-02-11T14:48:57;33.10;;;16.90;;
43048;SDS011;28673;44.412;11.918;2023-02-11T14:51:27;28.45;;;17.52;;
43048;SDS011;28673;44.412;11.918;2023-02-11T14:54:06;28.38;;;15.82;;
43048;SDS011;28673;44.412;11.918;2023-02-11T14:56:41;28.80;;;15.30;;
43048;SDS011;28673;44.412;11.918;2023-02-11T14:59:26;29.73;;;15.93;;
43048;SDS011;28673;44.412;11.918;2023-02-11T15:01:52;27.55;;;16.95;;
43048;SDS011;28673;44.412;11.918;2023-02-11T15:04:22;31.55;;;17.27;;
43048;SDS011;28673;44.412;11.918;2023-02-11T15:07:07;35.13;;;17.63;;
43048;SDS011;28673;44.412;11.918;2023-02-11T15:09:42;34.20;;;17.80;;
43048;SDS011;28673;44.412;11.918;2023-02-11T15:12:21;28.48;;;15.63;;
43048;SDS011;28673;44.412;11.918;2023-02-11T15:14:52;30.42;;;15.95;;
43048;SDS011;28673;44.412;11.918;2023-02-11T15:20:06;40.47;;;21.05;;
43048;SDS011;28673;44.412;11.918;2023-02-11T15:22:54;44.20;;;22.77;;
43048;SDS011;28673;44.412;11.918;2023-02-11T15:25:23;32.50;;;19.08;;
43048;SDS011;28673;44.412;11.918;2023-02-11T15:27:51;29.77;;;17.92;;
43048;SDS011;28673;44.412;11.918;2023-02-11T15:32:47;42.72;;;17.42;;
43048;SDS011;28673;44.412;11.918;2023-02-11T15:35:14;32.53;;;18.98;;
43048;SDS011;28673;44.412;11.918;2023-02-11T15:37:42;33.88;;;17.50;;
43048;SDS011;28673;44.412;11.918;2023-02-11T15:40:16;32.90;;;17.88;;
43048;SDS011;28673;44.412;11.918;2023-02-11T15:45:20;31.75;;;18.13;;
43048;SDS011;28673;44.412;11.918;2023-02-11T15:47:54;38.58;;;17.90;;
43048;SDS011;28673;44.412;11.918;2023-02-11T15:50:27;35.95;;;19.65;;
43048;SDS011;28673;44.412;11.918;2023-02-11T15:53:24;34.28;;;17.98;;
43048;SDS011;28673;44.412;11.918;2023-02-11T15:58:37;45.45;;;21.65;;
43048;SDS011;28673;44.412;11.918;2023-02-11T16:01:04;34.97;;;18.95;;
43048;SDS011;28673;44.412;11.918;2023-02-11T16:03:32;49.22;;;20.65;;
43048;SDS011;28673;44.412;11.918;2023-02-11T16:06:18;38.35;;;20.02;;
43048;SDS011;28673;44.412;11.918;2023-02-11T16:09:19;39.80;;;20.92;;
43048;SDS011;28673;44.412;11.918;2023-02-11T16:14:29;36.65;;;18.45;;
43048;SDS011;28673;44.412;11.918;2023-02-11T16:17:25;37.58;;;20.90;;
43048;SDS011;28673;44.412;11.918;2023-02-11T16:20:18;37.35;;;21.98;;
43048;SDS011;28673;44.412;11.918;2023-02-11T16:22:44;39.97;;;21.30;;
43048;SDS011;28673;44.412;11.918;2023-02-11T16:25:18;37.00;;;19.77;;
43048;SDS011;28673;44.412;11.918;2023-02-11T16:27:48;44.38;;;22.20;;
43048;SDS011;28673;44.412;11.918;2023-02-11T16:30:25;45.55;;;23.25;;
43048;SDS011;28673;44.412;11.918;2023-02-11T16:32:56;35.72;;;20.65;;
43048;SDS011;28673;44.412;11.918;2023-02-11T16:35:22;40.78;;;22.35;;
43048;SDS011;28673;44.412;11.918;2023-02-11T16:37:48;43.35;;;21.95;;
43048;SDS011;28673;44.412;11.918;2023-02-11T16:40:14;42.90;;;23.27;;
43048;SDS011;28673;44.412;11.918;2023-02-11T16:42:40;46.83;;;24.65;;
43048;SDS011;28673;44.412;11.918;2023-02-11T16:48:10;37.22;;;21.30;;
43048;SDS011;28673;44.412;11.918;2023-02-11T16:53:40;43.80;;;21.70;;
43048;SDS011;28673;44.412;11.918;2023-02-11T16:56:09;43.05;;;23.83;;
43048;SDS011;28673;44.412;11.918;2023-02-11T16:58:38;50.30;;;24.02;;
43048;SDS011;28673;44.412;11.918;2023-02-11T17:01:05;46.33;;;26.38;;
43048;SDS011;28673;44.412;11.918;2023-02-11T17:03:31;44.97;;;23.00;;
43048;SDS011;28673;44.412;11.918;2023-02-11T17:06:01;39.38;;;22.83;;
43048;SDS011;28673;44.412;11.918;2023-02-11T17:08:30;42.10;;;22.55;;
43048;SDS011;28673;44.412;11.918;2023-02-11T17:11:14;51.83;;;25.10;;
43048;SDS011;28673;44.412;11.918;2023-02-11T17:13:42;52.83;;;24.20;;
43048;SDS011;28673;44.412;11.918;2023-02-11T17:16:15;50.47;;;23.50;;
43048;SDS011;28673;44.412;11.918;2023-02-11T17:18:47;45.90;;;24.27;;
43048;SDS011;28673;44.412;11.918;2023-02-11T17:21:13;45.15;;;23.73;;
43048;SDS011;28673;44.412;11.918;2023-02-11T17:23:39;45.30;;;23.55;;
43048;SDS011;28673;44.412;11.918;2023-02-11T17:26:06;51.33;;;24.10;;
43048;SDS011;28673;44.412;11.918;2023-02-11T17:28:33;51.00;;;24.05;;
43048;SDS011;28673;44.412;11.918;2023-02-11T17:30:59;49.53;;;22.45;;
43048;SDS011;28673;44.412;11.918;2023-02-11T17:33:44;48.28;;;23.02;;
43048;SDS011;28673;44.412;11.918;2023-02-11T17:36:10;54.25;;;24.27;;
43048;SDS011;28673;44.412;11.918;2023-02-11T17:38:36;48.22;;;25.60;;
43048;SDS011;28673;44.412;11.918;2023-02-11T17:41:02;48.90;;;24.95;;
43048;SDS011;28673;44.412;11.918;2023-02-11T17:43:29;50.40;;;24.58;;
43048;SDS011;28673;44.412;11.918;2023-02-11T17:46:14;42.60;;;23.17;;
43048;SDS011;28673;44.412;11.918;2023-02-11T17:48:41;56.17;;;24.23;;
43048;SDS011;28673;44.412;11.918;2023-02-11T17:51:20;44.70;;;23.88;;
43048;SDS011;28673;44.412;11.918;2023-02-11T17:54:10;46.47;;;25.08;;
43048;SDS011;28673;44.412;11.918;2023-02-11T17:56:56;56.55;;;26.42;;
43048;SDS011;28673;44.412;11.918;2023-02-11T17:59:22;56.95;;;28.85;;
43048;SDS011;28673;44.412;11.918;2023-02-11T18:02:12;59.72;;;29.10;;